createdAt,value
2022-10-01T00:08:33.875Z,8.29
2022-10-01T00:18:41.347Z,8.23
2022-10-01T00:28:48.767Z,8.25
2022-10-01T00:38:58.714Z,8.32
2022-10-01T00:49:08.133Z,8.42
2022-10-01T00:59:16.314Z,8.44
2022-10-01T01:09:20.720Z,8.45
2022-10-01T01:19:44.741Z,8.47
2022-10-01T01:29:55.379Z,8.49
2022-10-01T01:40:04.174Z,8.53
2022-10-01T01:50:12.562Z,8.50
2022-10-01T02:00:18.304Z,8.35
2022-10-01T02:10:33.576Z,8.25
2022-10-01T02:20:44.694Z,8.24
2022-10-01T02:30:52.445Z,8.22
2022-10-01T02:41:05.107Z,8.18
2022-10-01T02:51:26.666Z,8.06
2022-10-01T03:01:32.875Z,7.94
2022-10-01T03:11:38.713Z,7.67
2022-10-01T03:21:44.686Z,7.39
2022-10-01T03:31:50.631Z,7.15
2022-10-01T03:41:56.485Z,6.84
2022-10-01T03:52:03.364Z,6.51
2022-10-01T04:02:09.237Z,6.19
2022-10-01T04:12:15.725Z,5.96
2022-10-01T04:22:21.487Z,5.73
2022-10-01T04:32:27.138Z,5.43
2022-10-01T04:42:32.766Z,5.15
2022-10-01T04:52:39.632Z,4.97
2022-10-01T05:02:49.234Z,4.80
2022-10-01T05:12:55.141Z,4.80
2022-10-01T05:23:01.037Z,5.12
2022-10-01T05:33:07.508Z,5.65
2022-10-01T05:43:13.183Z,6.10
2022-10-01T05:53:19.181Z,6.59
2022-10-01T06:03:25.697Z,6.82
2022-10-01T06:13:32.435Z,6.90
2022-10-01T06:23:39.026Z,6.91
2022-10-01T06:33:44.844Z,7.02
2022-10-01T06:43:51.246Z,7.23
2022-10-01T06:53:58.821Z,7.48
2022-10-01T07:04:05.006Z,7.66
2022-10-01T07:14:10.658Z,7.74
2022-10-01T07:24:16.814Z,7.95
2022-10-01T07:34:25.004Z,8.16
2022-10-01T07:44:29.550Z,8.38
2022-10-01T07:54:35.235Z,8.61
2022-10-01T08:04:58.867Z,8.83
2022-10-01T08:15:07.308Z,9.23
2022-10-01T08:25:13.145Z,9.55
2022-10-01T08:35:18.918Z,9.82
2022-10-01T08:45:30.190Z,10.13
2022-10-01T08:55:37.785Z,10.92
2022-10-01T09:05:55.237Z,12.57
2022-10-01T09:16:09.896Z,14.05
2022-10-01T09:26:15.964Z,15.09
2022-10-01T09:36:28.339Z,15.40
2022-10-01T09:46:34.889Z,15.25
2022-10-01T09:56:43.898Z,14.98
2022-10-01T10:06:50.392Z,14.61
2022-10-01T10:16:56.723Z,14.19
2022-10-01T10:27:05.572Z,13.72
2022-10-01T10:37:17.115Z,13.61
2022-10-01T10:47:24.590Z,13.57
2022-10-01T10:57:33.536Z,13.68
2022-10-01T11:07:39.336Z,13.59
2022-10-01T11:18:10.956Z,13.64
2022-10-01T11:28:35.903Z,13.81
2022-10-01T11:38:52.218Z,13.96
2022-10-01T11:49:02.846Z,14.06
2022-10-01T11:59:15.135Z,14.27
2022-10-01T12:09:26.203Z,14.53
2022-10-01T12:19:35.599Z,14.84
2022-10-01T12:29:51.429Z,15.11
2022-10-01T12:40:09.035Z,14.87
2022-10-01T12:50:34.595Z,14.53
2022-10-01T13:00:45.647Z,14.32
2022-10-01T13:11:02.349Z,14.40
2022-10-01T13:21:18.855Z,14.43
2022-10-01T13:31:37.505Z,14.14
2022-10-01T13:41:43.468Z,13.82
2022-10-01T13:51:49.883Z,13.63
2022-10-01T14:01:55.613Z,13.49
2022-10-01T14:12:23.122Z,13.33
2022-10-01T14:22:44.035Z,13.22
2022-10-01T14:33:09.581Z,13.10
2022-10-01T14:43:20.407Z,13.00
2022-10-01T14:53:29.121Z,12.93
2022-10-01T15:03:41.022Z,12.82
2022-10-01T15:13:48.828Z,12.68
2022-10-01T15:23:55.314Z,12.64
2022-10-01T15:34:03.919Z,12.62
2022-10-01T15:44:46.683Z,12.53
2022-10-01T15:55:03.976Z,12.40
2022-10-01T16:05:16.439Z,12.25
2022-10-01T16:15:30.461Z,12.09
2022-10-01T16:25:46.543Z,11.91
2022-10-01T16:35:53.945Z,11.75
2022-10-01T16:46:00.211Z,11.65
2022-10-01T16:56:06.505Z,11.56
2022-10-01T17:06:12.279Z,11.45
2022-10-01T17:16:19.475Z,11.30
2022-10-01T17:26:28.353Z,11.18
2022-10-01T17:36:36.196Z,11.09
2022-10-01T17:46:42.113Z,11.03
2022-10-01T17:56:49.284Z,11.02
2022-10-01T18:06:59.570Z,10.99
2022-10-01T18:17:05.586Z,10.94
2022-10-01T18:27:11.763Z,10.88
2022-10-01T18:37:29.809Z,10.86
2022-10-01T18:47:40.600Z,10.85
2022-10-01T18:58:04.260Z,10.90
2022-10-01T19:08:17.484Z,10.66
2022-10-01T19:18:41.374Z,10.35
2022-10-01T19:29:00.143Z,10.13
2022-10-01T19:39:12.055Z,9.92
2022-10-01T19:49:22.311Z,9.75
2022-10-01T19:59:30.141Z,9.58
2022-10-01T20:09:44.867Z,9.40
2022-10-01T20:20:01.906Z,9.34
2022-10-01T20:30:11.882Z,9.28
2022-10-01T20:40:25.189Z,9.29
2022-10-01T20:50:35.818Z,9.31
2022-10-01T21:00:45.970Z,9.31
2022-10-01T21:10:55.894Z,9.31
2022-10-01T21:21:15.482Z,9.32
2022-10-01T21:31:32.301Z,9.31
2022-10-01T21:41:55.716Z,9.27
2022-10-01T21:52:11.657Z,9.23
2022-10-01T22:02:33.703Z,9.24
2022-10-01T22:12:43.765Z,9.26
2022-10-01T22:22:51.413Z,9.22
2022-10-01T22:33:03.813Z,9.22
2022-10-01T22:43:12.035Z,9.23
2022-10-01T22:53:35.032Z,9.24
2022-10-01T23:03:57.793Z,9.24
2022-10-01T23:14:15.494Z,9.31
2022-10-01T23:24:35.793Z,9.38
2022-10-01T23:34:52.656Z,9.36
2022-10-01T23:45:07.642Z,9.32
2022-10-01T23:55:38.559Z,9.30
